Time;durP1;ratioP1;P1;durP2;ratioP2;P2;SDS_P1;SDS_P2;PMS_P1;PMS_P2;Temp;Humidity;BMP_temperature;BMP_pressure;BME280_temperature;BME280_humidity;BME280_pressure;Samples;Min_cycle;Max_cycle;Signal;HPM_P1;HPM_P2
2023/01/22 00:00:30;;;;;;;9.93;2.00;;;;;;;12.32;47.37;101556.09;7387483;19;20019;-80
2023/01/22 00:02:57;;;;;;;4.75;1.85;;;;;;;12.35;47.56;101549.59;7392061;19;20031;-79
2023/01/22 00:05:23;;;;;;;1.85;0.50;;;;;;;12.31;47.63;101538.53;7389647;19;20366;-79
2023/01/22 00:07:49;;;;;;;9.05;2.20;;;;;;;12.52;47.68;101542.66;7393118;19;20022;-79
2023/01/22 00:10:15;;;;;;;8.77;1.75;;;;;;;12.53;47.21;101549.84;7394083;19;20023;-79
2023/01/22 00:12:42;;;;;;;9.68;3.00;;;;;;;12.47;47.37;101529.28;7391187;19;20053;-79
2023/01/22 00:15:08;;;;;;;0.82;0.82;;;;;;;12.50;47.24;101517.19;7388890;19;20043;-79
2023/01/22 00:17:34;;;;;;;1.60;1.50;;;;;;;12.37;47.34;101527.59;7390704;19;20026;-79
2023/01/22 00:20:00;;;;;;;5.47;3.15;;;;;;;12.21;47.25;101527.72;7389467;19;20049;-79
2023/01/22 00:22:27;;;;;;;2.80;1.35;;;;;;;12.12;47.29;101523.56;7389999;19;20346;-79
2023/01/22 00:24:53;;;;;;;4.85;2.90;;;;;;;12.08;47.51;101511.72;7388961;19;20033;-79
2023/01/22 00:27:19;;;;;;;6.95;2.35;;;;;;;11.90;47.70;101514.28;7390798;19;20057;-79
2023/01/22 00:29:47;;;;;;;3.00;1.67;;;;;;;11.89;47.63;101518.28;7392533;19;20018;-79
2023/01/22 00:32:13;;;;;;;7.22;2.17;;;;;;;11.86;47.95;101518.41;7394055;19;20062;-79
2023/01/22 00:34:40;;;;;;;1.40;1.27;;;;;;;12.01;47.62;101520.31;7390070;19;20471;-79
2023/01/22 00:37:06;;;;;;;9.43;4.03;;;;;;;12.04;47.26;101524.25;7391531;19;20014;-79
2023/01/22 00:39:32;;;;;;;1.75;1.42;;;;;;;12.07;47.14;101529.72;7393198;19;20053;-79
2023/01/22 00:41:58;;;;;;;1.90;1.38;;;;;;;11.83;47.46;101525.66;7388002;19;20358;-79
2023/01/22 00:44:25;;;;;;;2.13;1.98;;;;;;;11.81;47.62;101521.72;7389429;19;20018;-79
2023/01/22 00:46:51;;;;;;;5.65;1.70;;;;;;;11.60;47.90;101525.09;7392945;19;20015;-79
2023/01/22 00:49:17;;;;;;;2.40;1.45;;;;;;;11.76;47.59;101520.25;7387602;19;20015;-79
2023/01/22 00:51:44;;;;;;;4.35;2.67;;;;;;;11.84;47.66;101516.06;7388480;19;20019;-79
2023/01/22 00:54:11;;;;;;;6.90;3.03;;;;;;;11.64;47.86;101518.19;7386095;19;20480;-80
2023/01/22 00:56:37;;;;;;;1.40;1.35;;;;;;;11.55;48.02;101515.28;7392724;19;20018;-80
2023/01/22 00:59:09;;;;;;;3.03;1.88;;;;;;;11.49;48.45;101519.03;7388531;19;20462;-79
2023/01/22 01:01:37;;;;;;;2.78;2.40;;;;;;;11.48;47.98;101526.63;7386055;19;20018;-79
2023/01/22 01:04:03;;;;;;;5.93;1.83;;;;;;;11.48;48.45;101525.84;7389019;19;20019;-79
2023/01/22 01:06:32;;;;;;;0.82;0.73;;;;;;;11.54;48.37;101527.66;7390503;19;20693;-79
2023/01/22 01:08:58;;;;;;;6.50;2.85;;;;;;;11.52;49.31;101527.31;7387671;19;20014;-79
2023/01/22 01:11:25;;;;;;;1.15;1.08;;;;;;;11.52;49.30;101537.69;7386174;19;20404;-79
2023/01/22 01:13:52;;;;;;;3.65;2.08;;;;;;;11.73;49.73;101526.75;7386199;19;20015;-79
2023/01/22 01:16:25;;;;;;;1.45;1.38;;;;;;;11.93;49.65;101529.34;7392005;19;20047;-79
2023/01/22 01:18:52;;;;;;;1.75;1.40;;;;;;;11.91;49.41;101531.81;7387320;19;20022;-80
2023/01/22 01:21:19;;;;;;;9.15;2.60;;;;;;;12.00;49.66;101532.69;7386291;19;20029;-79
2023/01/22 01:23:45;;;;;;;3.35;2.38;;;;;;;12.15;49.96;101547.81;7386240;19;20096;-79
2023/01/22 01:26:14;;;;;;;7.53;2.28;;;;;;;12.24;49.95;101546.34;7390223;19;20015;-80
2023/01/22 01:28:41;;;;;;;20.38;2.80;;;;;;;12.41;50.10;101539.44;7388936;19;20029;-79
2023/01/22 01:31:10;;;;;;;6.18;2.72;;;;;;;12.55;50.10;101541.78;7385639;19;20014;-79
2023/01/22 01:33:37;;;;;;;1.85;1.13;;;;;;;12.63;50.12;101554.28;7386793;19;20098;-80
2023/01/22 01:36:07;;;;;;;10.88;2.80;;;;;;;12.67;50.53;101552.16;7388363;19;20011;-79
2023/01/22 01:38:33;;;;;;;5.00;3.28;;;;;;;12.77;50.21;101554.63;7388220;19;20018;-80
2023/01/22 01:40:59;;;;;;;2.13;1.50;;;;;;;13.02;50.22;101564.19;7386556;19;20407;-79
2023/01/22 01:43:27;;;;;;;2.38;1.25;;;;;;;13.06;50.38;101556.50;7388480;19;20016;-79
2023/01/22 01:45:58;;;;;;;10.20;2.60;;;;;;;13.13;49.73;101557.03;7388152;19;20101;-78
2023/01/22 01:48:34;;;;;;;10.77;1.67;;;;;;;13.14;50.08;101558.59;7386076;19;20477;-79
2023/01/22 01:51:13;;;;;;;17.30;3.17;;;;;;;13.29;49.78;101562.47;7385427;19;20042;-79
2023/01/22 01:53:42;;;;;;;7.68;2.40;;;;;;;13.17;49.89;101552.09;7385786;19;20477;-79
2023/01/22 01:56:12;;;;;;;9.18;4.13;;;;;;;13.16;50.09;101550.53;7388825;19;20022;-79
2023/01/22 01:58:41;;;;;;;6.03;1.90;;;;;;;13.27;49.88;101553.75;7386598;19;20035;-79
2023/01/22 02:01:12;;;;;;;1.08;0.70;;;;;;;13.32;49.69;101547.56;7384627;19;20040;-79
2023/01/22 02:03:40;;;;;;;5.47;2.05;;;;;;;13.15;49.97;101546.16;7387871;19;20022;-79
2023/01/22 02:06:15;;;;;;;2.85;1.90;;;;;;;13.07;49.99;101539.25;7387323;19;20031;-79
2023/01/22 02:08:44;;;;;;;6.93;1.75;;;;;;;12.98;50.00;101536.34;7384142;19;20019;-80
2023/01/22 02:11:11;;;;;;;28.65;2.08;;;;;;;13.09;49.90;101531.19;7385458;19;20014;-79
2023/01/22 02:13:42;;;;;;;13.00;3.03;;;;;;;13.08;49.83;101535.22;7385501;19;20018;-80
2023/01/22 02:16:10;;;;;;;3.45;2.15;;;;;;;12.89;50.29;101541.84;7387570;19;20029;-81
2023/01/22 02:18:37;;;;;;;1.55;0.77;;;;;;;12.69;50.56;101542.09;7384636;19;20022;-80
2023/01/22 02:21:23;;;;;;;14.10;3.95;;;;;;;13.00;50.74;101539.47;7384962;19;20018;-79
2023/01/22 02:23:49;;;;;;;9.00;2.00;;;;;;;13.19;50.12;101534.88;7384079;19;20025;-79
2023/01/22 02:26:17;;;;;;;3.05;2.00;;;;;;;13.31;50.14;101543.22;7387963;19;20014;-79
2023/01/22 02:28:44;;;;;;;13.98;2.83;;;;;;;13.38;49.86;101554.13;7386111;19;20030;-80
2023/01/22 02:31:10;;;;;;;2.20;2.03;;;;;;;13.45;49.27;101548.28;7384914;19;20022;-79
2023/01/22 02:33:36;;;;;;;4.85;2.90;;;;;;;13.62;49.25;101548.91;7384191;19;20015;-79
2023/01/22 02:36:03;;;;;;;3.17;2.38;;;;;;;13.79;48.76;101555.88;7388371;19;20039;-79
2023/01/22 02:38:29;;;;;;;3.33;1.73;;;;;;;13.79;48.98;101560.69;7386525;19;20022;-80
2023/01/22 02:40:56;;;;;;;5.32;2.85;;;;;;;13.80;48.98;101556.63;7384082;19;20023;-80
2023/01/22 02:43:22;;;;;;;3.17;0.95;;;;;;;13.73;48.82;101556.91;7384046;19;20493;-81
2023/01/22 02:45:48;;;;;;;5.70;1.48;;;;;;;13.74;48.74;101552.88;7386240;19;20019;-79
2023/01/22 02:48:15;;;;;;;8.50;1.73;;;;;;;13.67;48.39;101549.09;7384515;19;20021;-80
2023/01/22 02:50:41;;;;;;;25.95;1.48;;;;;;;13.53;48.18;101544.03;7385213;19;20014;-79
2023/01/22 02:53:07;;;;;;;3.92;2.10;;;;;;;13.51;47.74;101554.88;7384741;19;20022;-79
2023/01/22 02:55:33;;;;;;;13.10;4.53;;;;;;;13.47;47.62;101551.41;7384316;19;20043;-79
2023/01/22 02:57:59;;;;;;;3.65;1.20;;;;;;;13.30;47.40;101547.25;7385805;19;20014;-79
2023/01/22 03:00:25;;;;;;;5.85;2.22;;;;;;;13.10;47.75;101546.75;7383468;19;20011;-79
2023/01/22 03:02:52;;;;;;;7.25;2.30;;;;;;;12.83;47.97;101547.22;7383452;19;20029;-79
2023/01/22 03:05:18;;;;;;;3.92;2.35;;;;;;;12.86;47.77;101548.34;7382230;19;20097;-80
2023/01/22 03:07:44;;;;;;;2.67;2.47;;;;;;;12.85;47.39;101543.97;7386881;19;20030;-79
2023/01/22 03:10:18;;;;;;;8.00;2.05;;;;;;;12.78;47.54;101538.63;7387771;19;20085;-80
2023/01/22 03:21:19;;;;;;;3.67;2.58;;;;;;;12.33;47.02;101535.28;7381976;19;20018;-79
2023/01/22 03:23:54;;;;;;;2.10;0.95;;;;;;;12.27;46.74;101537.09;7382519;19;20014;-79
2023/01/22 03:26:22;;;;;;;2.03;1.73;;;;;;;12.30;46.92;101539.00;7386987;19;20042;-79
2023/01/22 03:28:49;;;;;;;5.35;1.55;;;;;;;12.27;46.82;101539.88;7384411;19;20015;-79
2023/01/22 03:31:16;;;;;;;4.78;2.25;;;;;;;12.35;46.88;101544.81;7383256;19;20052;-79
2023/01/22 03:33:42;;;;;;;4.80;2.25;;;;;;;12.24;46.92;101543.56;7387711;19;20014;-79
2023/01/22 03:36:11;;;;;;;2.00;1.85;;;;;;;12.27;47.02;101545.47;7393621;19;20022;-79
2023/01/22 03:38:43;;;;;;;5.93;2.08;;;;;;;12.16;47.16;101548.59;7391040;19;20070;-79
2023/01/22 03:41:15;;;;;;;1.45;1.13;;;;;;;12.19;47.05;101548.47;7389297;19;20039;-80
2023/01/22 03:43:44;;;;;;;3.05;1.58;;;;;;;12.11;46.96;101544.34;7390648;19;20025;-78
2023/01/22 03:46:16;;;;;;;8.10;2.67;;;;;;;12.19;46.89;101542.88;7393216;19;20035;-79
2023/01/22 03:48:49;;;;;;;8.80;1.98;;;;;;;12.07;47.39;101540.09;7390704;19;20517;-79
2023/01/22 03:51:16;;;;;;;7.63;1.13;;;;;;;12.11;47.00;101544.34;7390572;19;20015;-79
2023/01/22 03:53:44;;;;;;;1.67;0.98;;;;;;;12.22;46.81;101535.63;7390775;19;20050;-79
2023/01/22 03:56:13;;;;;;;2.65;1.08;;;;;;;12.18;46.48;101535.75;7393295;19;20492;-80
2023/01/22 03:58:39;;;;;;;6.38;1.75;;;;;;;12.13;46.34;101527.13;7389420;19;20018;-79
2023/01/22 04:01:09;;;;;;;9.18;1.45;;;;;;;11.97;46.84;101521.66;7387398;19;20029;-79
2023/01/22 04:03:36;;;;;;;4.95;1.15;;;;;;;11.82;46.76;101526.88;7390488;19;20018;-79
2023/01/22 04:06:04;;;;;;;3.08;2.65;;;;;;;11.79;46.92;101524.19;7391932;19;20014;-79
2023/01/22 04:08:33;;;;;;;1.42;1.23;;;;;;;11.76;46.76;101520.25;7391249;19;20014;-79
2023/01/22 04:11:00;;;;;;;4.88;1.65;;;;;;;11.68;46.93;101507.75;7389336;19;20078;-79
2023/01/22 04:13:30;;;;;;;3.75;2.08;;;;;;;11.66;46.64;101509.38;7389358;19;20022;-79
2023/01/22 04:15:56;;;;;;;2.28;2.08;;;;;;;11.62;46.84;101505.91;7391779;19;20014;-79
2023/01/22 04:18:52;;;;;;;7.32;2.00;;;;;;;11.66;46.73;101510.16;7385449;19;20026;-79
2023/01/22 04:21:47;;;;;;;5.50;2.45;;;;;;;11.60;46.62;101500.78;7385080;19;20082;-79
2023/01/22 04:24:15;;;;;;;6.93;1.77;;;;;;;11.59;46.59;101499.19;7387257;19;20014;-79
2023/01/22 04:26:41;;;;;;;0.77;0.75;;;;;;;11.51;46.79;101503.44;7393794;19;20018;-79
2023/01/22 04:29:08;;;;;;;2.95;2.75;;;;;;;11.46;46.87;101512.34;7388894;19;20477;-78
2023/01/22 04:31:35;;;;;;;3.53;2.33;;;;;;;11.41;46.90;101515.69;7388319;19;20018;-78
2023/01/22 04:34:12;;;;;;;7.05;1.48;;;;;;;11.55;46.93;101501.31;7386991;19;20046;-78
2023/01/22 04:36:43;;;;;;;12.25;2.17;;;;;;;11.71;46.48;101495.72;7390379;19;20035;-79
2023/01/22 04:39:10;;;;;;;0.38;0.38;;;;;;;11.65;46.50;101491.84;7388058;19;20018;-79
2023/01/22 04:41:36;;;;;;;2.35;1.58;;;;;;;11.69;46.68;101487.00;7386845;19;20015;-78
2023/01/22 04:44:02;;;;;;;4.35;1.05;;;;;;;11.75;46.57;101476.84;7387691;19;20042;-79
2023/01/22 04:46:31;;;;;;;0.98;0.93;;;;;;;11.79;46.70;101491.47;7391969;19;20042;-79
2023/01/22 04:48:57;;;;;;;3.13;1.17;;;;;;;11.76;46.81;101495.13;7387428;19;20043;-79
2023/01/22 04:51:24;;;;;;;4.85;2.35;;;;;;;11.94;47.01;101503.78;7387472;19;20424;-79
2023/01/22 04:53:51;;;;;;;3.85;1.95;;;;;;;12.81;45.77;101493.00;7386549;19;20461;-78
2023/01/22 04:56:17;;;;;;;1.30;1.25;;;;;;;13.00;45.08;101493.94;7391610;19;20022;-78
2023/01/22 04:58:44;;;;;;;1.92;1.70;;;;;;;13.40;44.85;101492.94;7387852;19;20024;-79
2023/01/22 05:01:11;;;;;;;4.20;2.38;;;;;;;13.59;44.52;101497.41;7386235;19;20042;-79
2023/01/22 05:03:37;;;;;;;5.72;3.20;;;;;;;13.52;44.56;101492.06;7387228;19;20045;-78
2023/01/22 05:06:06;;;;;;;2.28;1.02;;;;;;;13.02;44.78;101492.25;7390762;19;20022;-79
2023/01/22 05:08:35;;;;;;;2.20;2.05;;;;;;;13.39;44.18;101488.56;7389748;19;20082;-79
2023/01/22 05:11:02;;;;;;;13.10;2.60;;;;;;;13.48;44.05;101483.03;7387987;19;20015;-79
2023/01/22 05:13:36;;;;;;;5.68;3.72;;;;;;;12.12;46.24;101487.28;7387651;19;20037;-79
2023/01/22 05:16:03;;;;;;;8.60;1.52;;;;;;;13.38;44.10;101478.59;7390272;19;20035;-79
2023/01/22 05:18:29;;;;;;;2.38;1.10;;;;;;;13.71;43.92;101481.00;7387514;19;20070;-79
2023/01/22 05:20:55;;;;;;;1.48;1.38;;;;;;;13.95;43.23;101482.03;7387045;19;20120;-79
2023/01/22 05:23:25;;;;;;;5.28;1.27;;;;;;;13.61;43.84;101472.53;7387423;19;20345;-78
2023/01/22 05:25:51;;;;;;;1.23;1.23;;;;;;;13.61;43.80;101475.34;7387112;19;20115;-78
2023/01/22 05:28:25;;;;;;;6.82;1.67;;;;;;;13.70;43.74;101480.22;7386767;19;20383;-79
2023/01/22 05:31:12;;;;;;;17.98;3.97;;;;;;;13.55;43.77;101481.97;7386741;19;20021;-79
2023/01/22 05:33:47;;;;;;;1.25;1.15;;;;;;;13.22;44.51;101484.38;7386672;19;20045;-79
2023/01/22 05:36:14;;;;;;;9.77;2.35;;;;;;;13.57;44.13;101474.69;7389032;19;20090;-79
2023/01/22 05:38:41;;;;;;;4.47;1.40;;;;;;;13.68;44.17;101483.47;7387537;19;20015;-79
2023/01/22 05:41:08;;;;;;;0.52;0.52;;;;;;;13.86;43.79;101470.81;7385197;19;20014;-79
2023/01/22 05:43:37;;;;;;;12.77;3.25;;;;;;;13.64;44.06;101482.81;7386465;19;20026;-79
2023/01/22 05:46:05;;;;;;;7.35;2.10;;;;;;;9.42;49.40;101495.00;7387951;19;20427;-79
2023/01/22 05:48:49;;;;;;;3.08;0.93;;;;;;;13.25;45.50;101483.47;7387184;19;20387;-79
2023/01/22 05:51:20;;;;;;;1.45;1.08;;;;;;;13.76;44.94;101488.78;7385934;19;20043;-82
2023/01/22 05:53:46;;;;;;;2.72;1.50;;;;;;;13.84;44.66;101482.44;7385443;19;20038;-78
2023/01/22 05:56:14;;;;;;;5.97;3.35;;;;;;;13.75;44.58;101487.25;7386853;19;20019;-79
2023/01/22 05:58:40;;;;;;;8.07;2.00;;;;;;;13.59;45.07;101480.63;7386307;19;20070;-79
2023/01/22 06:01:06;;;;;;;7.75;1.88;;;;;;;13.82;44.58;101475.78;7385143;19;20599;-79
2023/01/22 06:03:39;;;;;;;2.92;2.05;;;;;;;14.02;44.56;101473.38;7385549;19;20875;-79
2023/01/22 06:06:09;;;;;;;3.38;2.22;;;;;;;14.16;44.40;101475.63;7387547;19;20756;-79
2023/01/22 06:08:37;;;;;;;6.45;3.00;;;;;;;14.41;43.92;101478.22;7385042;19;20014;-79
2023/01/22 06:11:10;;;;;;;1.58;1.13;;;;;;;14.35;44.27;101480.06;7385408;19;20054;-79
2023/01/22 06:13:37;;;;;;;1.83;1.67;;;;;;;14.33;44.26;101488.97;7385902;19;20038;-79
2023/01/22 06:16:13;;;;;;;0.95;0.75;;;;;;;12.50;47.36;101489.25;7388182;19;20099;-79
2023/01/22 06:18:54;;;;;;;4.38;0.90;;;;;;;13.65;45.24;101478.78;7384663;19;20019;-79
2023/01/22 06:21:23;;;;;;;2.65;1.70;;;;;;;14.03;44.82;101469.34;7383936;19;20031;-79
2023/01/22 06:23:49;;;;;;;6.80;3.03;;;;;;;14.42;44.31;101468.59;7384201;19;20029;-79
2023/01/22 06:26:16;;;;;;;3.65;1.15;;;;;;;14.22;44.77;101479.38;7388262;19;20038;-79
2023/01/22 06:28:42;;;;;;;0.85;0.75;;;;;;;14.16;44.60;101476.38;7386514;19;20364;-79
2023/01/22 06:31:08;;;;;;;0.75;0.75;;;;;;;13.94;45.19;101477.69;7385388;19;20019;-79
2023/01/22 06:33:36;;;;;;;11.70;2.30;;;;;;;11.82;48.80;101490.59;7384812;19;20014;-79
2023/01/22 06:36:04;;;;;;;6.22;1.10;;;;;;;13.45;46.16;101492.31;7386843;19;20014;-79
2023/01/22 06:38:31;;;;;;;1.00;1.00;;;;;;;13.58;45.96;101495.84;7389033;19;20014;-79
2023/01/22 06:41:00;;;;;;;3.65;2.30;;;;;;;13.61;46.11;101499.75;7382468;19;20367;-79
2023/01/22 06:43:27;;;;;;;2.67;1.85;;;;;;;13.99;45.68;101493.91;7384539;19;20015;-79
2023/01/22 06:45:54;;;;;;;1.35;1.25;;;;;;;14.00;45.53;101504.66;7386514;19;20037;-79
2023/01/22 06:48:31;;;;;;;3.13;2.08;;;;;;;13.89;45.47;101492.28;7384531;19;20010;-80
2023/01/22 06:50:58;;;;;;;0.25;0.25;;;;;;;13.57;46.08;101490.69;7385383;19;20010;-78
2023/01/22 06:53:25;;;;;;;9.30;2.35;;;;;;;13.68;46.32;101499.50;7384844;19;20018;-79
2023/01/22 06:55:51;;;;;;;2.42;1.20;;;;;;;13.81;46.31;101491.00;7387403;19;20463;-79
2023/01/22 06:58:18;;;;;;;1.85;1.67;;;;;;;14.10;45.88;101503.44;7384889;19;20014;-78
2023/01/22 07:00:44;;;;;;;4.50;2.42;;;;;;;14.46;45.68;101500.06;7382868;19;20027;-77
2023/01/22 07:03:10;;;;;;;6.60;1.55;;;;;;;14.71;45.33;101496.19;7383711;19;20384;-77
2023/01/22 07:05:36;;;;;;;5.22;2.38;;;;;;;14.72;45.59;101506.19;7382760;19;20011;-77
2023/01/22 07:08:03;;;;;;;2.13;1.83;;;;;;;14.69;45.60;101516.31;7395379;19;20014;-77
2023/01/22 07:10:29;;;;;;;1.58;1.02;;;;;;;14.70;45.53;101517.88;7396395;19;20042;-77
2023/01/22 07:13:01;;;;;;;6.63;2.78;;;;;;;11.88;48.22;101516.72;7390569;19;20018;-77
2023/01/22 07:15:27;;;;;;;2.55;0.68;;;;;;;14.16;46.85;101512.03;7390518;19;20031;-77
2023/01/22 07:17:53;;;;;;;13.45;2.55;;;;;;;14.37;46.04;101512.00;7391819;19;20647;-77
2023/01/22 07:20:21;;;;;;;2.03;1.33;;;;;;;10.48;51.49;101512.94;7390663;19;20032;-77
2023/01/22 07:22:48;;;;;;;18.10;2.05;;;;;;;10.98;53.29;101516.03;7392793;19;20019;-77
2023/01/22 07:25:14;;;;;;;2.22;1.50;;;;;;;13.60;48.46;101510.16;7391805;19;20042;-78
2023/01/22 07:27:40;;;;;;;6.10;2.53;;;;;;;14.17;47.31;101502.38;7391127;19;20086;-77
2023/01/22 07:30:07;;;;;;;1.77;1.27;;;;;;;14.34;47.18;101507.31;7392185;19;20677;-77
2023/01/22 07:32:34;;;;;;;3.95;1.23;;;;;;;14.60;46.55;101507.88;7394286;19;20607;-77
2023/01/22 07:35:00;;;;;;;5.38;1.48;;;;;;;14.23;46.66;101501.31;7391119;19;20035;-77
2023/01/22 07:37:26;;;;;;;4.57;1.92;;;;;;;14.36;46.86;101509.66;7393528;19;20014;-77
2023/01/22 07:39:52;;;;;;;15.90;2.17;;;;;;;14.31;46.85;101516.63;7390771;19;20014;-77
2023/01/22 07:42:18;;;;;;;1.35;1.13;;;;;;;13.88;47.50;101522.31;7389968;19;20047;-77
2023/01/22 07:44:45;;;;;;;1.85;0.60;;;;;;;14.06;47.08;101518.81;7389981;19;20380;-79
2023/01/22 07:47:11;;;;;;;4.47;1.38;;;;;;;14.14;47.10;101520.13;7390746;19;20019;-76
2023/01/22 07:49:37;;;;;;;8.80;3.63;;;;;;;14.11;46.91;101518.25;7391936;19;20018;-77
2023/01/22 07:52:03;;;;;;;5.43;1.92;;;;;;;13.79;47.54;101515.88;7390610;19;20046;-77
2023/01/22 07:54:32;;;;;;;2.55;1.63;;;;;;;9.14;54.55;101524.09;7390613;19;20035;-76
2023/01/22 07:56:58;;;;;;;0.90;0.68;;;;;;;13.19;49.09;101518.84;7394625;19;20018;-76
2023/01/22 07:59:25;;;;;;;8.65;2.63;;;;;;;13.42;48.53;101515.63;7388784;19;20105;-62
2023/01/22 08:01:53;;;;;;;4.10;1.98;;;;;;;13.52;48.46;101530.47;7392062;19;20015;-62
2023/01/22 08:04:20;;;;;;;6.95;2.47;;;;;;;13.92;48.09;101541.78;7391977;19;20507;-63
2023/01/22 08:06:46;;;;;;;1.10;1.05;;;;;;;14.16;47.98;101535.22;7398727;19;20040;-63
2023/01/22 08:09:14;;;;;;;9.77;2.53;;;;;;;14.17;47.93;101533.22;7396810;19;20018;-63
2023/01/22 08:11:40;;;;;;;3.45;2.55;;;;;;;14.20;47.82;101535.09;7395219;19;20018;-63
2023/01/22 08:14:06;;;;;;;10.10;2.15;;;;;;;13.44;49.05;101526.38;7395065;19;20038;-63
2023/01/22 08:16:32;;;;;;;1.35;0.52;;;;;;;13.92;48.39;101522.19;7395382;19;20015;-63
2023/01/22 08:18:59;;;;;;;4.85;1.45;;;;;;;14.65;47.31;101526.09;7391943;19;20043;-62
2023/01/22 08:21:25;;;;;;;2.25;1.10;;;;;;;14.97;46.81;101533.97;7392546;19;20018;-62
2023/01/22 08:23:51;;;;;;;3.78;1.95;;;;;;;15.45;46.49;101527.47;7394638;19;20045;-63
2023/01/22 08:26:18;;;;;;;1.98;1.10;;;;;;;15.27;46.42;101527.44;7397222;19;20466;-63
2023/01/22 08:28:44;;;;;;;11.13;2.70;;;;;;;15.01;46.96;101526.97;7394731;19;20019;-63
2023/01/22 08:31:10;;;;;;;13.82;3.80;;;;;;;15.52;46.38;101527.19;7393783;19;20014;-62
2023/01/22 08:33:36;;;;;;;10.10;2.42;;;;;;;15.72;45.80;101523.88;7391609;19;20472;-62
2023/01/22 08:36:02;;;;;;;5.60;1.63;;;;;;;15.85;45.93;101528.03;7394610;19;20010;-62
2023/01/22 08:38:29;;;;;;;7.32;2.53;;;;;;;15.67;45.95;101535.72;7393056;19;20107;-62
2023/01/22 08:40:55;;;;;;;6.80;2.97;;;;;;;15.88;45.75;101526.31;7395681;19;20478;-62
2023/01/22 08:43:21;;;;;;;5.28;1.10;;;;;;;16.25;45.44;101533.41;7397654;19;20038;-62
2023/01/22 08:45:48;;;;;;;17.10;1.45;;;;;;;16.13;45.58;101525.97;7397127;19;20026;-63
2023/01/22 08:48:15;;;;;;;5.15;2.20;;;;;;;16.53;44.81;101529.25;7399025;19;20017;-63
2023/01/22 08:50:41;;;;;;;1.38;1.27;;;;;;;16.59;44.71;101535.78;7394158;19;20011;-63
2023/01/22 08:53:07;;;;;;;1.30;1.20;;;;;;;16.64;45.20;101532.31;7396396;19;20015;-62
2023/01/22 08:55:34;;;;;;;7.05;1.38;;;;;;;15.53;46.05;101519.50;7395873;19;20014;-64
2023/01/22 08:58:00;;;;;;;9.05;1.60;;;;;;;15.88;46.27;101520.72;7397067;19;20010;-62
2023/01/22 09:00:26;;;;;;;2.58;1.70;;;;;;;15.91;45.90;101523.38;7396699;19;20035;-62
2023/01/22 09:02:57;;;;;;;16.98;2.38;;;;;;;15.83;46.15;101519.31;7392471;19;20030;-62
2023/01/22 09:05:24;;;;;;;19.40;3.92;;;;;;;16.27;46.05;101518.88;7394988;19;20034;-62
2023/01/22 09:07:50;;;;;;;3.30;0.82;;;;;;;16.62;45.30;101508.72;7396051;19;20021;-62
2023/01/22 09:10:17;;;;;;;6.15;2.50;;;;;;;16.17;45.84;101508.91;7395106;19;20022;-62
2023/01/22 09:12:43;;;;;;;5.18;2.40;;;;;;;15.94;46.48;101518.81;7390437;19;20007;-62
2023/01/22 09:15:09;;;;;;;8.02;3.15;;;;;;;16.29;46.08;101508.72;7392445;19;20007;-62
2023/01/22 09:17:35;;;;;;;6.25;2.55;;;;;;;16.37;46.20;101512.72;7391950;19;20581;-62
2023/01/22 09:20:02;;;;;;;4.53;3.05;;;;;;;16.53;45.79;101515.19;7391555;19;20014;-62
2023/01/22 09:22:28;;;;;;;2.15;1.20;;;;;;;16.95;45.51;101505.88;7391389;19;20010;-62
2023/01/22 09:24:54;;;;;;;5.13;2.45;;;;;;;17.34;45.12;101510.25;7392180;19;20454;-62
2023/01/22 09:27:21;;;;;;;3.95;2.25;;;;;;;16.97;45.37;101506.97;7391520;19;20015;-62
2023/01/22 09:29:47;;;;;;;2.30;1.13;;;;;;;16.90;45.25;101512.16;7390116;19;20038;-62
2023/01/22 09:32:13;;;;;;;7.35;1.30;;;;;;;16.97;45.33;101523.06;7390087;19;20498;-62
2023/01/22 09:34:40;;;;;;;5.13;1.70;;;;;;;17.18;45.23;101521.97;7391645;19;20467;-62
2023/01/22 09:37:09;;;;;;;8.98;3.38;;;;;;;17.30;44.74;101526.56;7396646;19;20014;-62
2023/01/22 09:39:35;;;;;;;3.50;2.67;;;;;;;17.27;45.00;101522.69;7391077;19;20053;-62
2023/01/22 09:42:05;;;;;;;5.45;1.45;;;;;;;17.50;44.76;101511.84;7388499;19;20093;-62
2023/01/22 09:44:37;;;;;;;16.10;2.50;;;;;;;17.63;44.32;101515.22;7390836;19;20044;-66
2023/01/22 09:47:03;;;;;;;2.50;1.98;;;;;;;17.53;44.39;101517.31;7395402;19;20064;-62
2023/01/22 09:50:17;;;;;;;2.20;1.15;;;;;;;17.47;44.34;101524.88;7390286;19;20011;-62
2023/01/22 09:52:44;;;;;;;3.20;1.33;;;;;;;17.12;45.25;101538.75;7391309;19;20007;-62
2023/01/22 09:55:13;;;;;;;8.32;1.25;;;;;;;16.81;45.50;101535.50;7391308;19;20066;-61
2023/01/22 09:57:46;;;;;;;2.63;1.08;;;;;;;16.84;45.10;101540.19;7390420;19;20027;-61
2023/01/22 10:00:18;;;;;;;13.27;2.47;;;;;;;16.75;45.68;101536.63;7390464;19;20011;-62
2023/01/22 10:02:53;;;;;;;7.50;1.67;;;;;;;16.60;46.44;101536.56;7390631;19;20042;-62
2023/01/22 10:05:32;;;;;;;2.72;0.77;;;;;;;16.18;47.03;101555.44;7391619;19;20014;-61
2023/01/22 10:08:12;;;;;;;6.70;2.95;;;;;;;16.07;46.71;101555.94;7388645;19;20081;-61
2023/01/22 10:10:39;;;;;;;8.70;2.55;;;;;;;16.13;47.05;101559.69;7394974;19;20011;-62
2023/01/22 10:13:09;;;;;;;7.10;1.25;;;;;;;16.09;47.03;101561.88;7390109;19;20010;-61
2023/01/22 10:15:36;;;;;;;0.95;0.40;;;;;;;16.77;46.92;101563.03;7392330;19;20034;-62
2023/01/22 10:18:15;;;;;;;7.85;1.83;;;;;;;16.84;46.04;101567.53;7390058;19;20017;-61
2023/01/22 10:20:42;;;;;;;8.63;1.40;;;;;;;16.54;46.83;101561.75;7389432;19;20007;-61
2023/01/22 10:23:17;;;;;;;5.95;3.63;;;;;;;16.58;46.90;101562.38;7390404;19;20034;-61
2023/01/22 10:25:44;;;;;;;6.35;2.75;;;;;;;16.71;46.87;101564.97;7390843;19;20014;-62
2023/01/22 10:28:11;;;;;;;6.40;1.70;;;;;;;16.92;46.37;101563.13;7389164;19;20086;-61
2023/01/22 10:30:46;;;;;;;7.45;3.22;;;;;;;16.78;46.54;101558.19;7389346;19;20470;-61
2023/01/22 10:33:19;;;;;;;7.32;2.53;;;;;;;16.68;46.79;101565.91;7387974;19;20017;-61
2023/01/22 10:35:47;;;;;;;4.15;2.05;;;;;;;16.53;46.82;101565.03;7391981;19;20027;-61
2023/01/22 10:38:40;;;;;;;14.65;2.20;;;;;;;16.45;47.15;101567.41;7388606;19;20015;-61
2023/01/22 10:41:15;;;;;;;2.35;1.55;;;;;;;16.48;47.28;101562.84;7387057;19;20006;-62
2023/01/22 10:43:41;;;;;;;4.53;1.63;;;;;;;16.51;47.67;101568.31;7403666;19;20010;-62
2023/01/22 10:46:23;;;;;;;3.28;1.25;;;;;;;16.67;47.71;101570.75;7406308;19;20018;-61
2023/01/22 10:49:04;;;;;;;3.30;1.40;;;;;;;16.50;47.86;101569.56;7403682;19;20006;-62
2023/01/22 10:51:36;;;;;;;1.13;0.98;;;;;;;17.28;46.89;101565.72;7403366;19;20011;-62
2023/01/22 10:54:04;;;;;;;4.53;2.22;;;;;;;17.73;46.33;101576.63;7403172;19;20018;-62
2023/01/22 10:56:36;;;;;;;8.77;2.03;;;;;;;17.71;46.18;101593.25;7406262;19;20018;-61
2023/01/22 10:59:21;;;;;;;2.38;2.28;;;;;;;16.75;47.40;101601.34;7403145;19;20010;-61
2023/01/22 11:01:54;;;;;;;1.27;0.57;;;;;;;17.11;47.12;101603.97;7398593;19;20013;-61
2023/01/22 11:04:32;;;;;;;10.70;1.13;;;;;;;17.26;47.04;101591.50;7400806;19;20017;-61
2023/01/22 11:07:06;;;;;;;2.67;2.35;;;;;;;17.37;46.62;101585.31;7404988;19;20026;-62
2023/01/22 11:10:13;;;;;;;2.97;2.22;;;;;;;17.98;45.79;101590.16;7405505;19;20031;-61
2023/01/22 11:12:47;;;;;;;1.65;1.05;;;;;;;18.30;45.37;101573.53;7400931;19;20011;-61
2023/01/22 11:15:28;;;;;;;14.38;3.17;;;;;;;18.30;45.56;101577.13;7403181;19;20074;-61
2023/01/22 11:18:00;;;;;;;8.52;3.13;;;;;;;18.18;45.54;101572.56;7401759;19;20014;-61
2023/01/22 11:20:29;;;;;;;11.65;3.53;;;;;;;18.25;45.53;101565.75;7400385;19;20042;-61
2023/01/22 11:23:08;;;;;;;5.05;1.70;;;;;;;18.20;45.36;101553.13;7399396;19;20043;-61
2023/01/22 11:25:43;;;;;;;8.23;1.55;;;;;;;17.94;46.12;101552.94;7400777;19;20006;-61
2023/01/22 11:28:12;;;;;;;14.25;1.88;;;;;;;17.22;46.84;101537.41;7399465;19;20522;-61
2023/01/22 11:30:52;;;;;;;8.05;2.13;;;;;;;17.40;46.92;101544.94;7400130;19;20011;-61
2023/01/22 11:33:21;;;;;;;3.08;1.75;;;;;;;18.08;45.73;101529.56;7400604;19;20362;-61
2023/01/22 11:35:58;;;;;;;2.42;1.08;;;;;;;17.77;45.94;101537.75;7403539;19;20082;-61
2023/01/22 11:38:31;;;;;;;6.68;1.38;;;;;;;17.66;46.60;101526.28;7400382;19;20015;-61
2023/01/22 11:41:15;;;;;;;2.88;2.22;;;;;;;17.53;46.50;101524.97;7399554;19;20011;-61